createdAt,value
2019-05-09T00:02:13.756Z,22.30
2019-05-09T00:06:17.781Z,20.65
2019-05-09T00:10:36.739Z,19.35
2019-05-09T00:14:26.428Z,21.13
2019-05-09T00:18:29.884Z,22.50
2019-05-09T00:22:33.350Z,20.43
2019-05-09T00:26:36.805Z,21.57
2019-05-09T00:30:58.495Z,24.30
2019-05-09T00:35:06.707Z,22.27
2019-05-09T00:39:10.161Z,23.90
2019-05-09T00:43:13.918Z,21.80
2019-05-09T00:47:24.930Z,21.85
2019-05-09T00:51:28.377Z,25.92
2019-05-09T00:55:33.230Z,22.40
2019-05-09T00:59:37.164Z,22.80
2019-05-09T01:03:43.104Z,21.55
2019-05-09T01:07:45.886Z,20.50
2019-05-09T01:11:49.638Z,24.37
2019-05-09T01:15:53.361Z,22.80
2019-05-09T01:19:58.469Z,26.57
2019-05-09T01:24:03.363Z,25.67
2019-05-09T01:28:07.350Z,26.43
2019-05-09T01:32:14.402Z,29.15
2019-05-09T01:36:17.649Z,26.80
2019-05-09T01:40:21.111Z,27.80
2019-05-09T01:44:24.564Z,28.73
2019-05-09T01:48:28.383Z,31.20
2019-05-09T01:52:33.745Z,26.48
2019-05-09T01:56:37.320Z,27.48
2019-05-09T02:00:40.778Z,29.60
2019-05-09T02:04:44.571Z,28.25
2019-05-09T02:08:48.042Z,29.90
2019-05-09T02:12:53.623Z,31.10
2019-05-09T02:17:11.172Z,32.10
2019-05-09T02:21:14.736Z,34.48
2019-05-09T02:25:18.243Z,36.90
2019-05-09T02:29:23.199Z,39.10
2019-05-09T02:33:26.813Z,35.80
2019-05-09T02:37:30.551Z,38.75
2019-05-09T02:41:33.999Z,33.02
2019-05-09T02:45:39.093Z,31.12
2019-05-09T02:49:42.616Z,36.47
2019-05-09T02:53:48.545Z,29.67
2019-05-09T02:57:52.869Z,33.20
2019-05-09T03:02:01.222Z,34.77
2019-05-09T03:06:04.663Z,28.42
2019-05-09T03:10:08.973Z,29.65
2019-05-09T03:14:12.979Z,30.62
2019-05-09T03:18:18.368Z,26.68
2019-05-09T03:22:23.235Z,26.57
2019-05-09T03:26:29.325Z,25.50
2019-05-09T03:30:34.695Z,24.40
2019-05-09T03:34:38.507Z,26.63
2019-05-09T03:38:41.945Z,25.30
2019-05-09T03:42:45.414Z,25.55
2019-05-09T03:46:58.094Z,24.43
2019-05-09T03:51:01.487Z,25.08
2019-05-09T03:55:10.898Z,27.62
2019-05-09T03:59:14.330Z,22.95
2019-05-09T04:03:19.825Z,23.83
2019-05-09T04:07:23.066Z,25.27
2019-05-09T04:11:27.624Z,19.73
2019-05-09T04:15:31.606Z,25.35
2019-05-09T04:19:35.063Z,26.85
2019-05-09T04:23:38.828Z,20.68
2019-05-09T04:27:44.305Z,18.07
2019-05-09T04:31:48.346Z,18.32
2019-05-09T04:35:52.007Z,17.30
2019-05-09T04:40:01.590Z,19.23
2019-05-09T04:44:05.161Z,20.62
2019-05-09T04:48:08.008Z,24.47
2019-05-09T04:52:11.457Z,21.10
2019-05-09T04:56:17.565Z,22.52
2019-05-09T05:04:48.128Z,22.93
2019-05-09T05:08:51.930Z,29.93
2019-05-09T05:12:57.287Z,25.25
2019-05-09T05:17:07.712Z,29.07
2019-05-09T05:21:07.831Z,28.10
2019-05-09T05:25:11.553Z,25.57
2019-05-09T05:29:17.495Z,34.48
2019-05-09T05:37:31.819Z,26.30
2019-05-09T05:41:37.806Z,27.35
2019-05-09T05:49:45.781Z,28.77
2019-05-09T05:53:49.248Z,31.33
2019-05-09T05:57:52.707Z,33.92
2019-05-09T06:01:58.899Z,31.90
2019-05-09T06:10:12.637Z,29.55
2019-05-09T06:14:18.192Z,28.70
2019-05-09T06:18:21.429Z,29.70
2019-05-09T06:22:27.460Z,32.48
2019-05-09T06:26:30.345Z,27.35
2019-05-09T06:30:34.234Z,39.98
2019-05-09T06:34:41.763Z,27.60
2019-05-09T06:38:42.917Z,28.13
2019-05-09T06:42:48.858Z,28.00
2019-05-09T06:47:09.489Z,32.93
2019-05-09T06:51:12.942Z,22.43
2019-05-09T06:55:17.327Z,26.75
2019-05-09T06:59:20.926Z,23.00
2019-05-09T07:03:34.969Z,24.93
2019-05-09T07:07:49.169Z,24.00
2019-05-09T07:11:52.634Z,24.57
2019-05-09T07:15:58.370Z,22.30
2019-05-09T07:20:01.678Z,22.05
2019-05-09T07:24:05.281Z,20.97
2019-05-09T07:28:08.734Z,20.55
2019-05-09T07:32:13.840Z,19.70
2019-05-09T07:36:18.876Z,18.80
2019-05-09T07:40:22.498Z,19.80
2019-05-09T07:44:28.552Z,20.23
2019-05-09T07:48:31.411Z,17.65
2019-05-09T07:52:34.993Z,14.93
2019-05-09T07:56:38.952Z,19.60
2019-05-09T08:00:42.769Z,23.35
2019-05-09T08:04:48.652Z,23.50
2019-05-09T08:08:51.706Z,23.77
2019-05-09T08:12:55.179Z,20.57
2019-05-09T08:16:58.628Z,26.00
2019-05-09T08:21:02.078Z,21.42
2019-05-09T08:25:07.917Z,24.67
2019-05-09T08:29:10.848Z,19.83
2019-05-09T08:33:14.301Z,20.77
2019-05-09T08:37:17.756Z,22.48
2019-05-09T08:41:21.214Z,24.32
2019-05-09T08:45:30.240Z,25.48
2019-05-09T08:49:31.730Z,23.40
2019-05-09T08:53:35.177Z,20.93
2019-05-09T08:57:38.887Z,18.07
2019-05-09T09:02:08.192Z,17.92
2019-05-09T09:09:52.162Z,20.15
2019-05-09T09:13:57.617Z,15.98
2019-05-09T09:18:02.414Z,19.77
2019-05-09T09:22:05.867Z,15.83
2019-05-09T09:26:10.167Z,14.87
2019-05-09T09:30:20.775Z,17.25
2019-05-09T09:34:19.182Z,16.93
2019-05-09T09:38:22.903Z,15.63
2019-05-09T09:42:28.196Z,16.23
2019-05-09T09:46:31.780Z,15.90
2019-05-09T09:50:35.225Z,13.22
2019-05-09T09:54:38.869Z,12.63
2019-05-09T09:58:44.664Z,12.28
2019-05-09T10:02:48.378Z,11.20
2019-05-09T10:06:53.441Z,10.97
2019-05-09T10:10:58.947Z,13.58
2019-05-09T10:15:08.368Z,14.30
2019-05-09T10:19:24.873Z,9.95
2019-05-09T10:23:28.569Z,8.93
2019-05-09T10:27:32.021Z,6.30
2019-05-09T10:31:35.539Z,7.47
2019-05-09T10:35:39.286Z,7.42
2019-05-09T10:39:43.156Z,8.40
2019-05-09T10:43:57.915Z,6.53
2019-05-09T10:48:01.591Z,6.30
2019-05-09T10:52:05.079Z,5.58
2019-05-09T10:56:08.931Z,6.20
2019-05-09T11:00:13.294Z,5.37
2019-05-09T11:04:18.004Z,5.12
2019-05-09T11:08:21.645Z,5.80
2019-05-09T11:12:27.412Z,4.45
2019-05-09T11:16:41.743Z,3.83
2019-05-09T11:20:35.667Z,4.37
2019-05-09T11:24:46.110Z,5.55
2019-05-09T11:28:44.619Z,3.87
2019-05-09T11:32:48.183Z,6.00
2019-05-09T11:36:51.793Z,6.37
2019-05-09T11:40:57.448Z,4.72
2019-05-09T11:45:00.589Z,5.90
2019-05-09T11:49:04.106Z,4.40
2019-05-09T11:53:08.862Z,5.15
2019-05-09T11:57:12.733Z,4.65
2019-05-09T12:01:18.592Z,2.85
2019-05-09T12:05:21.354Z,2.70
2019-05-09T12:09:24.796Z,2.72
2019-05-09T12:13:28.715Z,8.43
2019-05-09T12:17:49.924Z,4.00
2019-05-09T12:21:46.563Z,2.57
2019-05-09T12:25:42.486Z,4.33
2019-05-09T12:29:48.324Z,3.95
2019-05-09T12:33:51.110Z,2.67
2019-05-09T12:37:54.569Z,3.33
2019-05-09T12:41:58.090Z,7.53
2019-05-09T12:46:01.546Z,4.03
2019-05-09T12:50:05.630Z,1.70
2019-05-09T12:54:09.101Z,3.40
2019-05-09T12:58:27.945Z,3.00
2019-05-09T13:02:31.447Z,2.85
2019-05-09T13:06:34.890Z,8.98
2019-05-09T13:10:38.331Z,2.67
2019-05-09T13:14:41.773Z,3.87
2019-05-09T13:18:48.895Z,2.92
2019-05-09T13:22:52.081Z,1.92
2019-05-09T13:26:55.542Z,5.50
2019-05-09T13:30:59.058Z,2.80
2019-05-09T13:35:02.538Z,2.02
2019-05-09T13:39:08.992Z,3.72
2019-05-09T13:43:13.090Z,1.12
2019-05-09T13:47:17.910Z,4.35
2019-05-09T13:51:21.755Z,1.32
2019-05-09T13:55:27.445Z,1.50
2019-05-09T13:59:30.436Z,0.60
2019-05-09T14:03:33.939Z,0.78
2019-05-09T14:07:37.812Z,2.13
2019-05-09T14:11:41.640Z,3.13
2019-05-09T14:15:45.143Z,0.40
2019-05-09T14:19:51.094Z,0.82
2019-05-09T14:24:06.484Z,1.27
2019-05-09T14:27:59.527Z,0.20
2019-05-09T14:32:05.077Z,1.77
2019-05-09T14:36:08.506Z,1.33
2019-05-09T14:40:12.026Z,0.60
2019-05-09T14:44:17.951Z,1.50
2019-05-09T14:48:20.627Z,1.00
2019-05-09T14:52:24.329Z,0.85
2019-05-09T14:56:28.134Z,1.30
2019-05-09T15:00:31.960Z,0.90
2019-05-09T15:04:35.641Z,1.07
2019-05-09T15:08:39.174Z,1.15
2019-05-09T15:12:42.630Z,0.88
2019-05-09T15:16:48.518Z,2.13
2019-05-09T15:20:51.754Z,2.80
2019-05-09T15:24:55.458Z,1.50
2019-05-09T15:28:58.906Z,3.72
2019-05-09T15:33:02.361Z,2.17
2019-05-09T15:37:05.827Z,0.53
2019-05-09T15:41:12.039Z,2.23
2019-05-09T15:45:14.780Z,5.70
2019-05-09T15:49:18.513Z,3.92
2019-05-09T15:53:21.933Z,4.60
2019-05-09T15:57:27.395Z,1.40
2019-05-09T16:01:30.809Z,3.70
2019-05-09T16:05:34.421Z,4.37
2019-05-09T16:09:38.130Z,5.25
2019-05-09T16:13:41.569Z,4.58
2019-05-09T16:17:45.018Z,3.62
2019-05-09T16:21:48.469Z,3.85
2019-05-09T16:25:52.241Z,1.98
2019-05-09T16:29:57.858Z,8.78
2019-05-09T16:34:00.932Z,1.80
2019-05-09T16:38:10.183Z,2.47
2019-05-09T16:42:11.411Z,1.12
2019-05-09T16:46:14.937Z,1.72
2019-05-09T16:50:19.017Z,1.75
2019-05-09T16:54:24.114Z,2.65
2019-05-09T16:58:27.818Z,3.37
2019-05-09T17:02:31.530Z,2.95
2019-05-09T17:06:35.258Z,2.40
2019-05-09T17:10:38.697Z,3.72
2019-05-09T17:14:42.305Z,2.58
2019-05-09T17:18:48.474Z,2.20
2019-05-09T17:23:14.537Z,5.03
2019-05-09T17:27:14.186Z,1.90
2019-05-09T17:31:18.225Z,5.22
2019-05-09T17:35:21.746Z,1.52
2019-05-09T17:39:27.625Z,2.58
2019-05-09T17:43:30.399Z,1.72
2019-05-09T17:47:33.854Z,4.12
2019-05-09T17:51:37.405Z,3.95
2019-05-09T17:55:47.748Z,6.70
2019-05-09T17:59:59.136Z,3.30
2019-05-09T18:04:09.100Z,5.75
2019-05-09T18:08:12.745Z,2.33
2019-05-09T18:12:18.774Z,3.25
2019-05-09T18:16:21.680Z,1.50
2019-05-09T18:20:25.306Z,3.25
2019-05-09T18:24:28.924Z,2.75
2019-05-09T18:28:32.457Z,4.45
2019-05-09T18:32:47.649Z,2.00
2019-05-09T18:36:51.417Z,1.82
2019-05-09T18:40:57.683Z,1.82
2019-05-09T18:45:00.554Z,1.70
2019-05-09T18:49:04.005Z,1.90
2019-05-09T18:53:07.507Z,1.87
2019-05-09T18:57:11.239Z,1.50
2019-05-09T19:01:15.023Z,4.87
2019-05-09T19:05:19.447Z,2.24
2019-05-09T19:09:23.214Z,1.87
2019-05-09T19:13:26.658Z,2.98
2019-05-09T19:17:47.971Z,2.43
2019-05-09T19:21:55.845Z,3.60
2019-05-09T19:26:01.005Z,2.72
2019-05-09T19:30:08.761Z,2.50
2019-05-09T19:34:12.514Z,3.67
2019-05-09T19:38:15.975Z,3.42
2019-05-09T19:42:19.466Z,3.15
2019-05-09T19:46:22.913Z,2.00
2019-05-09T19:50:26.349Z,2.00
2019-05-09T19:54:31.288Z,2.83
2019-05-09T19:58:34.805Z,5.60
2019-05-09T20:02:38.539Z,2.00
2019-05-09T20:06:41.986Z,1.57
2019-05-09T20:11:01.664Z,2.00
2019-05-09T20:15:07.115Z,1.50
2019-05-09T20:19:10.588Z,1.85
2019-05-09T20:23:14.100Z,4.13
2019-05-09T20:27:17.907Z,1.60
2019-05-09T20:31:21.402Z,1.55
2019-05-09T20:35:24.868Z,2.62
2019-05-09T20:39:30.875Z,2.27
2019-05-09T20:43:33.939Z,5.87
2019-05-09T20:47:37.567Z,5.42
2019-05-09T20:51:41.434Z,2.80
2019-05-09T20:55:45.102Z,3.10
2019-05-09T20:59:48.983Z,12.05
2019-05-09T21:04:00.053Z,7.22
2019-05-09T21:07:58.699Z,4.47
2019-05-09T21:12:02.591Z,6.85
2019-05-09T21:16:06.491Z,5.55
2019-05-09T21:20:10.195Z,3.15
2019-05-09T21:24:14.106Z,5.75
2019-05-09T21:28:17.741Z,4.87
2019-05-09T21:32:21.366Z,3.52
2019-05-09T21:36:24.804Z,6.62
2019-05-09T21:40:28.509Z,4.42
2019-05-09T21:44:31.969Z,4.92
2019-05-09T21:48:38.418Z,4.17
2019-05-09T21:52:41.153Z,9.00
2019-05-09T21:56:44.596Z,6.80
2019-05-09T22:00:51.366Z,5.23
2019-05-09T22:04:55.074Z,3.52
2019-05-09T22:08:58.530Z,3.10
2019-05-09T22:13:02.228Z,5.53
2019-05-09T22:17:13.372Z,10.08
2019-05-09T22:21:22.505Z,7.22
2019-05-09T22:25:25.983Z,5.60
2019-05-09T22:29:29.424Z,3.98
2019-05-09T22:33:32.865Z,6.37
2019-05-09T22:37:36.294Z,3.90
2019-05-09T22:41:39.986Z,5.87
2019-05-09T22:45:44.274Z,8.00
2019-05-09T22:49:47.720Z,3.75
2019-05-09T22:53:51.411Z,8.73
2019-05-09T22:57:54.841Z,7.15
2019-05-09T23:01:58.548Z,8.88
2019-05-09T23:06:02.013Z,6.10
2019-05-09T23:10:06.900Z,5.17
2019-05-09T23:14:10.346Z,9.57
2019-05-09T23:18:13.781Z,3.90
2019-05-09T23:22:17.393Z,4.50
2019-05-09T23:26:21.897Z,3.37
2019-05-09T23:30:25.357Z,4.22
2019-05-09T23:34:28.799Z,4.70
2019-05-09T23:38:32.255Z,3.60
2019-05-09T23:42:35.701Z,6.33
2019-05-09T23:46:39.135Z,3.92
2019-05-09T23:50:42.847Z,3.45
2019-05-09T23:55:03.984Z,3.02
2019-05-09T23:59:25.778Z,2.15
